Tiempo atmosférico en la estación meteorológica de Molina De Aragón, Guadalajara (1056 m.)



Fecha
DESCASC
Temp. máxima en grados centígrados (hora)
DESCASC
Temp. mínima en grados centígrados (hora)
DESCASC
Temp. media en grados centígrados
DESCASC
Racha de viento máxima en m/sg (hora)
DESCASC
Velocidad máxima media en intervalos de 10 minutos(hora)
DESCASC
Precipitaciones diarias en mm
DESCASC
Precipitaciones de 00:00 a 06:00 en mm
DESCASC
Precipitaciones de 06:00 a 12:00 en mm
DESCASC
Precipitaciones de 12:00 a 18:00 en mm
DESCASC
Precipitaciones de 18:00 a 24:00 en mm
DESCASC
22-04-2019 14.3 (16:50) 5.4 (07:40) 9.9 6.11 (11:00) 3.33 (11:20) 0.2 0.2 0 0 0
21-04-2019 7.8 (17:50) 4.4 (03:20) 6.1 8.33 (07:30) 3.61 (08:20) 2.8 1.8 0 0 1
20-04-2019 13.7 (15:40) 5.4 (23:59) 9.5 15.28 (13:00) 8.33 (13:00) 1 0 0 0 1
19-04-2019 12.1 (18:20) 5.7 (00:00) 8.9 15.83 (18:20) 8.61 (18:20) 15 4.6 9.8 0.6 0
18-04-2019 15.5 (00:00) 5.7 (00:00) 10.6 6.11 (13:00) 3.33 (15:50) 28.2 0 7.2 5.6 15.4
17-04-2019 23.9 (16:40) 5.9 (00:00) 14.9 8.61 (19:10) 4.72 (17:10) 0 0 0 0 0
16-04-2019 20.2 (17:40) 6 (00:00) 13.1 6.67 (17:40) 3.06 (18:50) 0 0 0 0 0
15-04-2019 21.4 (16:40) 4.5 (00:00) 12.9 12.78 (16:40) 6.67 (16:40) 0 0 0 0 0
14-04-2019 21.1 (17:30) -0.3 (00:00) 10.4 7.22 (16:20) 3.61 (13:10) 0 0 0 0 0
13-04-2019 19.2 (17:10) -4.8 (-00:0) 7.2 7.5 (15:50) 2.78 (15:10) 0 0 0 0 0
12-04-2019 15.4 (18:10) -2.3 (-00:0) 6.5 7.78 (16:30) 3.61 (16:50) 0 0 0 0 0
11-04-2019 12.3 (16:40) -1 (-00:0) 5.7 9.17 (10:20) 4.17 (12:20) 0 0 0 0 0
10-04-2019 11.2 (15:00) 2.5 (00:00) 6.8 10.56 (16:20) 5 (12:20) 0.8 0.4 0.4 0 0
09-04-2019 10.2 (14:30) 0.9 (00:00) 5.5 11.11 (17:00) 5.28 (11:30) 6.6 3.2 0 2.6 0.8
08-04-2019 12.6 (16:30) 4.4 (00:00) 8.5 10 (16:40) 5 (16:40) 2 0.6 0.4 1 0
07-04-2019 10.6 (16:40) 1.3 (00:00) 6 10.28 (12:50) 5.28 (12:00) 0.2 0 0.2 0 0
06-04-2019 7.3 (15:50) 1 (00:00) 4.2 10.56 (10:10) 5.83 (10:10) 5.2 0 1 1.8 2.4
05-04-2019 7.4 (13:30) 0.8 (00:00) 4.1 11.11 (20:20) 5.83 (20:30) 3.8 0 0 0.4 3.4
04-04-2019 11.7 (17:10) -2.2 (-00:0) 4.7 12.22 (16:20) 5 (17:10) 0 0 0 0 0
03-04-2019 12.4 (13:00) 1.5 (00:00) 6.9 9.44 (13:10) 4.72 (13:00) 0 0 0 0 0
02-04-2019 15.2 (16:50) 4.4 (00:00) 9.8 10.83 (17:20) 4.72 (17:20) 3 1 0.4 0.8 0.8
01-04-2019 12.5 (15:10) 5.6 (00:00) 9 6.39 (15:20) 2.78 (15:20) 8.6 1.6 1.4 5.4 0.2
31-03-2019 9.5 (13:30) 0.6 (00:00) 5.1 7.5 (14:10) 4.44 (14:10) 8.8 0 0 6.4 2.4
30-03-2019 18.1 (15:40) -4.5 (-00:0) 6.8 9.44 (20:30) 5.28 (20:30) 0 0 0 0 0
29-03-2019 17.7 (14:50) -4.1 (-00:0) 6.8 7.78 (13:10) 4.17 (17:30) 0 0 0 0 0
28-03-2019 18.2 (15:30) -5.3 (-00:0) 6.5 6.94 (17:00) 2.78 (17:10) 0 0 0 0 0
27-03-2019 17.1 (15:50) -6.7 (-00:0) 5.2 6.11 (14:40) 2.78 (14:50) 0 0 0 0 0
26-03-2019 16.8 (15:00) -5.4 (-00:0) 5.7 9.44 (16:30) 4.17 (16:00) 0 0 0 0 0
25-03-2019 18.4 (16:10) -3.4 (-00:0) 7.5 6.67 (14:20) 3.33 (18:00) 0 0 0 0 0

Gráficas

Temp. máximas Temp. mínimas Temp. medias Precipitaciones Rachas de viento máximas Velocidades máximas media en intervalos de 10 minutos

Datos horarios

Fecha y hora oficial Temperatura (ºC) Velocidad del viento (km/h) Dirección del viento Racha (km/h) Dirección de racha Precipitación (mm) Presión (hPa) Tendencia (hPa) Humedad (%)
2019-04-23 23:00:00 5 13 Sudoeste 34 Oeste 0 881.3 1.8 76
2019-04-23 22:00:00 5.1 9 Sudoeste 22 Sudoeste 0 880.9 2.2 78
2019-04-23 21:00:00 5.3 12 Sudoeste 26 Oeste 0 880.1 1.5 76
2019-04-23 20:00:00 5.9 14 Oeste 42 Oeste 0 879.5 1.4 72
2019-04-23 19:00:00 8.4 14 Sudoeste 34 Oeste 0 878.7 0.4 65
2019-04-23 18:00:00 7.7 13 Oeste 43 Sudoeste 0 878.6 -0.1 80
2019-04-23 17:00:00 10.2 18 Sudoeste 40 Sur 0 878.1 -1.1 67
2019-04-23 16:00:00 10 11 Sudoeste 38 Oeste 0.4 878.3 -1.1 82
2019-04-23 15:00:00 10 20 Sudoeste 39 Sur 0 878.7 0 68
2019-04-23 14:00:00 9.2 17 Sudoeste 36 Sudoeste 0 879.2 0.9 71
2019-04-23 13:00:00 9.2 17 Sudoeste 32 Sudoeste 0 879.4 1.1 76
2019-04-23 12:00:00 10.9 14 Sur 31 Sudoeste 0 878.7 0.5 65
2019-04-23 11:00:00 9.5 8 Sudoeste 25 Sudoeste 0 878.3 0.3 78
2019-04-23 10:00:00 9.6 12 Sur 26 Sur 0 878.3 0.1 75
2019-04-23 09:00:00 8.9 11 Sur 24 Sur 0 878.2 0 78
2019-04-23 08:00:00 8.2 5 Sur 14 Sur 0 878 -0.6 83
2019-04-23 07:00:00 8.5 7 Sudoeste 22 Sudoeste 0 878.2 -0.6 81
2019-04-23 06:00:00 6.5 9 Sudoeste 19 Sudoeste 0 878.2 -1.3 95
2019-04-23 05:00:00 5.5 0 Calma 5 Sudeste 0 878.6 -1.6 92
2019-04-23 04:00:00 6.1 0 Calma 6 Sudoeste 0 878.8 -1.8 92
2019-04-23 03:00:00 6.2 2 Sudeste 6 Sur 0 879.5 -1.5 93
2019-04-23 02:00:00 6 2 Este 10 Sur 0 880.2 -0.9 91
2019-04-23 01:00:00 6.1 3 Nordeste 8 Sudeste 0 880.6 -0.4 91
2019-04-23 00:00:00 6.8 3 Este 6 Este 0 881 0.3 88
2019-04-22 23:00:00 8.6 0 Calma 7 Oeste 0 881.1 0.6 81
2019-04-22 22:00:00 10.5 4 Oeste 10 Sudoeste 0 881 0.6 72
2019-04-22 21:00:00 11.8 7 Sudoeste 14 Sudoeste 0 880.7 0.1 69
2019-04-22 20:00:00 12.5 8 Sudoeste 14 Oeste 0 880.5 -0.6 62
2019-04-22 19:00:00 13.4 6 Oeste 13 Sur 0 880.4 -1.4 58
2019-04-22 18:00:00 13.4 5 Sudoeste 13 Oeste 0 880.6 -2 58
2019-04-22 17:00:00 13.6 6 Sudoeste 11 Sudoeste 0 881.1 -1.8 57
2019-04-22 16:00:00 13.1 3 Nordeste 11 Nordeste 0 881.8 -1.5 63
2019-04-22 15:00:00 10.9 6 Este 18 Nordeste 0 882.6 -1.2 67
2019-04-22 14:00:00 10.8 8 Este 19 Este 0 882.9 -1 67
2019-04-22 13:00:00 11.1 8 Este 19 Este 0 883.3 -1 65
2019-04-22 12:00:00 10.3 10 Este 21 Sudeste 0 883.8 -0.5 67
2019-04-22 11:00:00 10.4 10 Este 22 Sudeste 0 883.9 -0.4 67
2019-04-22 10:00:00 8 4 Sudoeste 7 Sur 0 884.3 0 87
2019-04-22 09:00:00 6.6 5 Oeste 6 Oeste 0 884.3 -0.4 95
2019-04-22 08:00:00 5.5 2 Este 4 Este 0 884.3 -1 95
2019-04-22 07:00:00 5.8 4 Este 7 Sudeste 0 884.3 -1.8 94
2019-04-22 06:00:00 5.9 3 Noroeste 6 Norte 0 884.7 -2.3 93
2019-04-22 05:00:00 6 3 Nordeste 9 Nordeste 0 885.3 -2.6 93
2019-04-22 04:00:00 6.1 3 Nordeste 10 Nordeste 0 886.1 -2.4 94
2019-04-22 03:00:00 6.2 4 Nordeste 10 Norte 0 887 -2 95
2019-04-22 02:00:00 6.3 3 Nordeste 11 Nordeste 0 887.9 -1.4 95
2019-04-22 01:00:00 6.3 4 Nordeste 13 Nordeste 0.2 888.5 -1 95
2019-04-22 00:00:00 6.3 4 Nordeste 15 Este 0.2 889 -0.3 96
2019-04-21 23:00:00 6.3 6 Nordeste 17 Nordeste 0.4 889.3 0 96
2019-04-21 22:00:00 6.4 6 Nordeste 21 Este 0.2 889.5 -0.2 95
2019-04-21 21:00:00 6.6 5 Nordeste 16 Nordeste 0 889.3 -0.6 94
2019-04-21 20:00:00 6.8 8 Nordeste 17 Este 0.2 889.3 -0.9 92
2019-04-21 19:00:00 7.1 9 Nordeste 21 Nordeste 0 889.7 -1 89
2019-04-21 18:00:00 7.7 9 Nordeste 22 Nordeste 0 889.9 -1.3 86
2019-04-21 17:00:00 7.7 7 Nordeste 22 Este 0 890.2 -1.4 86
2019-04-21 16:00:00 6.9 7 Nordeste 20 Este 0 890.7 -1.4 91
2019-04-21 15:00:00 6.5 7 Nordeste 20 Norte 0 891.2 -1.1 92
2019-04-21 14:00:00 6.3 8 Nordeste 21 Nordeste 0 891.6 -0.9 92
2019-04-21 13:00:00 6.3 8 Nordeste 21 Este 0 892.1 -0.5 91
2019-04-21 12:00:00 6.4 7 Nordeste 19 Este 0 892.3 -0.5 91
2019-04-21 11:00:00 5.9 9 Nordeste 29 Nordeste 0 892.5 -0.6 91
2019-04-21 10:00:00 5.8 8 Nordeste 23 Nordeste 0 892.6 -0.4 92
2019-04-21 09:00:00 5.4 10 Nordeste 27 Este 0 892.8 -0.6 94
2019-04-21 08:00:00 5.4 11 Nordeste 30 Este 0 893.1 -1.1 92
2019-04-21 07:00:00 5.3 8 Nordeste 25 Este 0 893 -1.9 93
2019-04-21 06:00:00 5.2 8 Nordeste 25 Este 0 893.4 -2.4 94
2019-04-21 05:00:00 4.8 9 Nordeste 20 Nordeste 0 894.2 -2.6 96
2019-04-21 04:00:00 4.4 6 Nordeste 14 Este 0.2 894.9 -2.6 94
2019-04-21 03:00:00 4.5 6 Nordeste 19 Nordeste 0.2 895.8 -2 94
2019-04-21 02:00:00 4.6 4 Nordeste 23 Este 0.8 896.8 -1.3 93
2019-04-21 01:00:00 4.8 8 Este 19 Este 0.6 897.5 -0.2 91
2019-04-21 00:00:00 5.4 10 Este 29 Este 0.8 897.8 0.2 90
2019-04-20 23:00:00 6 11 Este 22 Este 0.2 898.1 0.6 88
2019-04-20 22:00:00 6.2 12 Este 28 Este 0 897.7 0.5 84
2019-04-20 21:00:00 6.5 10 Este 34 Este 0 897.6 0.8 85
2019-04-20 20:00:00 7.2 15 Este 36 Sudeste 0 897.5 0.5 84
2019-04-20 19:00:00 10.1 21 Este 39 Este 0 897.2 -0.1 65
2019-04-20 18:00:00 11.5 21 Este 41 Este 0 896.8 -1 52
2019-04-20 17:00:00 12 22 Este 40 Este 0 897 -1.2 51
2019-04-20 16:00:00 13.3 11 Nordeste 37 Este 0 897.3 -0.7 50
2019-04-20 15:00:00 13.3 23 Este 49 Este 0 897.8 -0.8 49
2019-04-20 14:00:00 12.1 20 Nordeste 45 Este 0 898.2 0.1 51
2019-04-20 13:00:00 12.7 30 Este 55 Este 0 898 -0.1 50
2019-04-20 12:00:00 12.6 22 Este 45 Este 0 898.6 0.3 53
2019-04-20 11:00:00 12.5 15 Nordeste 36 Nordeste 0 898.1 -0.6 57
2019-04-20 10:00:00 10 11 Nordeste 27 Este 0 898.1 -0.5 71
2019-04-20 09:00:00 7.7 12 Nordeste 24 Este 0 898.3 0.3 79
2019-04-20 08:00:00 6.5 3 Nordeste 19 Este 0 898.7 0.2 83
2019-04-20 07:00:00 6.9 8 Nordeste 24 Este 0 898.6 -0.7 82
2019-04-20 06:00:00 7.2 8 Este 24 Este 0 898 -1.7 80
2019-04-20 05:00:00 6.8 5 Norte 28 Nordeste 0 898.5 -1.5 85
2019-04-20 04:00:00 7.2 7 Norte 26 Este 0 899.3 -0.9 85
2019-04-20 03:00:00 7.3 7 Nordeste 22 Este 0 899.7 -0.6 84
2019-04-20 02:00:00 7.2 5 Este 19 Sudeste 0 900 -0.3 80
2019-04-20 01:00:00 7.2 5 Nordeste 18 Nordeste 0 900.2 0.6 79
2019-04-20 00:00:00 7.6 3 Nordeste 16 Este 0 900.3 1.7 79
2019-04-19 23:00:00 8.4 6 Este 16 Este 0 900.3 2.4 75
2019-04-19 22:00:00 8.8 4 Norte 35 Este 0 899.6 2 73
2019-04-19 21:00:00 9.8 21 Este 43 Este 0 898.6 1.6 68
2019-04-19 20:00:00 10.9 20 Este 45 Este 0 897.9 1.1 65
2019-04-19 19:00:00 11.4 16 Este 57 Este 0 897.6 0.7 65
2019-04-19 18:00:00 11.9 29 Este 48 Este 0 897 0.3 68
2019-04-19 17:00:00 10.9 27 Este 49 Este 0 896.8 0.6 74
2019-04-19 16:00:00 8.7 23 Este 46 Este 0 896.9 0.8 87
2019-04-19 15:00:00 8.2 20 Nordeste 45 Este 0.2 896.7 0.5 93
2019-04-19 14:00:00 8.5 16 Nordeste 40 Nordeste 0 896.2 0.1 93
2019-04-19 13:00:00 7.9 4 Norte 13 Norte 0.4 896.1 0.3 95
2019-04-19 12:00:00 8.3 6 Norte 18 Norte 0.4 896.2 0.5 95
2019-04-19 11:00:00 8.5 4 Nordeste 11 Este 0.6 896.1 1 97
2019-04-19 10:00:00 7.5 5 Nordeste 12 Este 1.2 895.8 1.2 97
2019-04-19 09:00:00 6.6 2 Sur 4 Sudoeste 2.6 895.7 1.5 97
2019-04-19 08:00:00 6.4 2 Sudoeste 5 Sudoeste 2.8 895.1 1.2 96
2019-04-19 07:00:00 6.3 2 Sudoeste 5 Este 2.2 894.6 1 96
2019-04-19 06:00:00 6.2 0 Calma 6 Nordeste 0.8 894.2 0.5 96
2019-04-19 05:00:00 6 5 Este 9 Este 1 893.9 -0.2 96
2019-04-19 04:00:00 5.8 4 Este 10 Este 1 893.6 -0.6 96
2019-04-19 03:00:00 6 3 Nordeste 8 Nordeste 0.8 893.7 -0.1 95
2019-04-19 02:00:00 6 3 Este 7 Sudeste 0.8 894.1 0.3 95
2019-04-19 01:00:00 5.9 4 Este 12 Este 0.2 894.2 1 95
2019-04-19 00:00:00 5.7 5 Este 13 Este 1.2 893.8 1 95
2019-04-18 23:00:00 5.8 7 Este 17 Sudeste 2.2 893.8 1.5 94
2019-04-18 22:00:00 6.4 6 Este 13 Este 2 893.2 1.4 94
2019-04-18 21:00:00 6.8 4 Sudeste 8 Sudeste 3.8 892.8 1 94
2019-04-18 20:00:00 7.1 4 Sudoeste 11 Sudoeste 2.6 892.3 0.5 94
2019-04-18 19:00:00 7.2 4 Sudoeste 21 Sudoeste 3.6 891.8 -0.1 93
2019-04-18 18:00:00 7.7 11 Oeste 18 Oeste 2.8 891.8 -0.1 92
2019-04-18 17:00:00 8 9 Oeste 21 Sudoeste 2.4 891.8 -0.2 90
2019-04-18 16:00:00 9.2 11 Sudoeste 21 Sudoeste 0.4 891.9 -0.5 87
2019-04-18 15:00:00 11.1 2 Nordeste 13 Nordeste 0 891.9 -1.1 71
2019-04-18 14:00:00 10.8 5 Este 19 Nordeste 0 892 -1.1 71
2019-04-18 13:00:00 11.2 9 Nordeste 22 Este 0 892.4 -0.7 76
2019-04-18 12:00:00 12.7 11 Norte 20 Nordeste 0 893 -1.2 76
2019-04-18 11:00:00 11.4 8 Nordeste 17 Norte 0 893.1 -0.1 88
2019-04-18 10:00:00 9.9 8 Norte 14 Norte 0 893.1 -0.1 91
2019-04-18 09:00:00 9.1 5 Sudoeste 14 Oeste 3.2 894.2 1.2 92
2019-04-18 08:00:00 9.2 6 Noroeste 12 Noroeste 4 893.2 -0.3 88
2019-04-18 07:00:00 10.2 3 Sudeste 7 Sudeste 0 893.2 -0.8 72
2019-04-18 06:00:00 10.2 0 Calma 6 Este 0 893 -1.3 70
2019-04-18 05:00:00 10.6 2 Sudeste 6 Sudeste 0 893.5 -0.7 66
2019-04-18 04:00:00 10.9 3 Sudoeste 10 Nordeste 0 894 0.1 66
2019-04-18 03:00:00 11.9 4 Este 8 Este 0 894.3 0.8 60
2019-04-18 02:00:00 13.8 4 Sur 14 Sur 0 894.2 0.5 53
2019-04-18 01:00:00 14.3 6 Sudeste 16 Sur 0 893.9 1.3 49
2019-04-18 00:00:00 15.5 4 Oeste 18 Oeste 0 893.5 2 46
2019-04-17 23:00:00 16.2 10 Sudoeste 27 Sudoeste 0 893.7 2.4 42
2019-04-17 22:00:00 15.4 3 Nordeste 22 Sudeste 0 892.6 1.8 48
2019-04-17 21:00:00 17.1 13 Sudeste 30 Sudeste 0 891.5 0.9 44
2019-04-17 20:00:00 20.1 12 Sudeste 31 Sudeste 0 891.3 0.1 36
2019-04-17 19:00:00 22.1 13 Sudeste 30 Sudeste 0 890.8 -1.2 29
2019-04-17 18:00:00 23.4 10 Sur 30 Sur 0 890.6 -2.1 20
2019-04-17 17:00:00 23.4 12 Sudoeste 26 Sur 0 891.2 -1.5 23
2019-04-17 16:00:00 23.6 12 Sudoeste 28 Oeste 0 892 -1.2 22
2019-04-17 15:00:00 22.5 14 Sudoeste 30 Sudoeste 0 892.7 -1.1 25
2019-04-17 14:00:00 21.7 9 Sur 18 Oeste 0 892.7 -1.5 34
2019-04-17 13:00:00 19.9 6 Este 19 Este 0 893.2 -1.4 38
2019-04-17 12:00:00 17.3 10 Este 19 Nordeste 0 893.8 -0.9 44
2019-04-17 11:00:00 14.1 4 Este 9 Este 0 894.2 -0.4 56
2019-04-17 10:00:00 9.3 3 Sudoeste 7 Sur 0 894.6 -0.2 79
2019-04-17 09:00:00 7.1 4 Sur 5 Sur 0 894.7 0 87
2019-04-17 08:00:00 5.9 0 Calma 5 Sudoeste 0 894.6 -0.4 87
2019-04-17 07:00:00 6.5 3 Sudoeste 5 Oeste 0 894.8 -0.7 85
2019-04-17 06:00:00 6.1 3 Norte 6 Norte 0 894.7 -1.5 87
2019-04-17 05:00:00 6.2 0 Calma 4 Este 0 895 -1.5 86
2019-04-17 04:00:00 6.3 0 Calma 3 Sudoeste 0 895.5 -0.8 85
2019-04-17 03:00:00 6.5 0 Calma 4 Sudeste 0 896.2 0 83
2019-04-17 02:00:00 6.8 0 Calma 5 Sudoeste 0 896.5 0.5 80
2019-04-17 01:00:00 7.3 0 Calma 6 Sudeste 0 896.3 0.5 74
2019-04-17 00:00:00 8.4 4 Este 10 Este 0 896.2 0.6 75
2019-04-16 23:00:00 10.1 3 Este 9 Norte 0 896 0.5 64
2019-04-16 22:00:00 12.4 3 Norte 8 Este 0 895.8 0.3 52
2019-04-16 21:00:00 14.7 3 Nordeste 16 Nordeste 0 895.6 0.1 41
2019-04-16 20:00:00 17.7 9 Este 18 Este 0 895.5 -0.4 29
2019-04-16 19:00:00 18.8 10 Este 20 Sudeste 0 895.5 -0.9 28
2019-04-16 18:00:00 19.8 8 Nordeste 24 Este 0 895.5 -1.7 31
2019-04-16 17:00:00 19.6 8 Norte 17 Sudeste 0 895.9 -1.9 33
2019-04-16 16:00:00 18.8 5 Nordeste 17 Este 0 896.4 -1.7 36
2019-04-16 15:00:00 17.4 6 Este 15 Sudeste 0 897.2 -1.2 32
2019-04-16 14:00:00 16.2 7 Sudeste 19 Sudeste 0 897.8 -0.6 41
2019-04-16 13:00:00 14.4 4 Noroeste 13 Sur 0 898.1 -0.1 47
2019-04-16 12:00:00 14 5 Sudeste 13 Sudeste 0 898.4 0.3 55
2019-04-16 11:00:00 10.9 3 Sur 13 Sudeste 0 898.4 0.5 66
2019-04-16 10:00:00 9.9 3 Este 8 Sudeste 0 898.2 1.2 72
2019-04-16 09:00:00 8 3 Oeste 5 Oeste 0 898.1 1 78
2019-04-16 08:00:00 6.3 2 Este 7 Oeste 0 897.9 1.4 83
2019-04-16 07:00:00 6.4 0 Calma 6 Este 0 897 0.7 82
2019-04-16 06:00:00 6.2 3 Este 8 Sudeste 0 897.1 0.5 81
2019-04-16 05:00:00 6.7 2 Sudoeste 6 Oeste 0 896.5 0.3 75
2019-04-16 04:00:00 8.5 5 Oeste 12 Oeste 0 896.3 0.1 68
2019-04-16 03:00:00 9.5 6 Sudoeste 12 Sudoeste 0 896.6 0.7 66
2019-04-16 02:00:00 10.3 6 Oeste 14 Oeste 0 896.2 1 62
2019-04-16 01:00:00 10.9 7 Oeste 18 Norte 0 896.2 3 63
2019-04-16 00:00:00 11.5 6 Noroeste 22 Noroeste 0 895.9 3.8 64
2019-04-15 23:00:00 12.4 8 Oeste 31 Noroeste 0 895.2 4.1 66
2019-04-15 22:00:00 15.8 13 Oeste 38 Sudoeste 0 893.2 2.3 37
2019-04-15 21:00:00 17.7 18 Oeste 39 Sudoeste 0 892.1 1 37
2019-04-15 20:00:00 19 12 Sudoeste 43 Oeste 0 891.1 -0.5 36
2019-04-15 19:00:00 20 18 Sudoeste 43 Sudoeste 0 890.9 -0.9 38
2019-04-15 18:00:00 21.2 18 Sudoeste 43 Sur 0 891.1 -1.3 37
2019-04-15 17:00:00 21 16 Sudoeste 46 Sudoeste 0 891.6 -1.5 39
2019-04-15 16:00:00 20.2 20 Sur 34 Sudoeste 0 891.8 -1.6 45
2019-04-15 15:00:00 19.1 11 Sudoeste 30 Sudoeste 0 892.4 -1.3 49
2019-04-15 14:00:00 19.5 18 Sudoeste 40 Sudoeste 0 893.1 -0.9 46
2019-04-15 13:00:00 19.1 13 Sudoeste 29 Sudoeste 0 893.4 -1 48
2019-04-15 12:00:00 17.4 8 Sudoeste 20 Sudoeste 0 893.7 -1.1 55
2019-04-15 11:00:00 15.2 5 Oeste 11 Oeste 0 894 -1 67
2019-04-15 10:00:00 10.9 3 Sudoeste 6 Oeste 0 894.4 -0.6 78
2019-04-15 09:00:00 7.2 0 Calma 5 Sudoeste 0 894.8 -0.4 90
2019-04-15 08:00:00 4.8 0 Calma 5 Sudeste 0 895 -0.7 94
2019-04-15 07:00:00 4.6 0 Calma 4 Este 0 895 -1 93
2019-04-15 06:00:00 5 0 Calma 5 Este 0 895.2 -1.2 91
2019-04-15 05:00:00 5.8 2 Sudeste 4 Sudoeste 0 895.7 -1.2 90
2019-04-15 04:00:00 6.4 0 Calma 3 Sudoeste 0 896 -1.2 90
2019-04-15 03:00:00 6.6 0 Calma 4 Sudoeste 0 896.4 -0.8 88
2019-04-15 02:00:00 7.3 0 Calma 6 Este 0 896.9 0 85
2019-04-15 01:00:00 8.6 4 Sudeste 7 Sudeste 0 897.2 0.5 81
2019-04-15 00:00:00 9.9 2 Nordeste 8 Sudeste 0 897.2 1.2 77
2019-04-14 23:00:00 12.4 4 Este 7 Este 0 896.9 1.4 70
2019-04-14 22:00:00 14.3 3 Noroeste 9 Norte 0 896.7 1.4 63
2019-04-14 21:00:00 16.1 4 Nordeste 17 Norte 0 896 0.9 58
2019-04-14 20:00:00 18.9 5 Norte 14 Oeste 0 895.5 0.1 50
2019-04-14 19:00:00 20 6 Noroeste 20 Oeste 0 895.3 -0.6 43
2019-04-14 18:00:00 20.9 8 Oeste 21 Oeste 0 895.1 -1 42
2019-04-14 17:00:00 20.7 13 Oeste 26 Oeste 0 895.4 -1.1 43
2019-04-14 16:00:00 20 12 Oeste 23 Oeste 0 895.9 -0.8 44
2019-04-14 15:00:00 19.9 12 Oeste 23 Oeste 0 896.1 -0.9 46
2019-04-14 14:00:00 18.6 9 Oeste 23 Oeste 0 896.5 -0.6 50
2019-04-14 13:00:00 18.1 10 Oeste 23 Noroeste 0 896.7 -0.7 52
2019-04-14 12:00:00 16.1 10 Oeste 23 Sudoeste 0 897 -0.4 55
2019-04-14 11:00:00 12 8 Sudoeste 16 Sudoeste 0 897.1 -0.3 59
2019-04-14 10:00:00 6 3 Sudoeste 5 Sudoeste 0 897.4 0.3 64
2019-04-14 09:00:00 2.3 3 Sudoeste 5 Sudoeste 0 897.4 0.4 77
2019-04-14 08:00:00 0.2 0 Calma 4 Este 0 897.4 0.1 83
2019-04-14 07:00:00 0.3 2 Este 5 Este 0 897.1 -0.3 81
2019-04-14 06:00:00 -0.2 3 Este 4 Este 0 897 -0.6 82
2019-04-14 05:00:00 -0.3 0 Calma 5 Este 0 897.3 -0.6 79
2019-04-14 04:00:00 0 0 Calma 4 Este 0 897.4 -0.6 77
2019-04-14 03:00:00 0.4 0 Calma 4 Este 0 897.6 -0.6 73
2019-04-14 02:00:00 1.3 2 Nordeste 5 Este 0 897.9 -0.2 70
2019-04-14 01:00:00 2.2 2 Este 7 Sudeste 0 898 0.4 63
2019-04-14 00:00:00 3.7 2 Sudeste 5 Este 0 898.2 1.3 56
2019-04-13 23:00:00 5.4 3 Este 7 Sudeste 0 898.1 1.9 50
2019-04-13 22:00:00 8.6 3 Sudeste 8 Sudeste 0 897.6 1.5 38
2019-04-13 21:00:00 13.3 3 Norte 17 Oeste 0 896.9 0.6 21
2019-04-13 20:00:00 16.3 8 Oeste 20 Oeste 0 896.2 -0.2 13
2019-04-13 19:00:00 18.6 8 Oeste 14 Norte 0 896.1 -0.7 10
2019-04-13 18:00:00 19.1 6 Este 18 Norte 0 896.3 -0.9 11
2019-04-13 17:00:00 19 6 Oeste 21 Noroeste 0 896.4 -0.8 12
2019-04-13 16:00:00 18.4 8 Norte 27 Norte 0 896.8 -0.7 17
2019-04-13 15:00:00 18.3 10 Norte 24 Nordeste 0 897.2 -0.9 17
2019-04-13 14:00:00 17.3 6 Norte 18 Norte 0 897.2 -1.2 15
2019-04-13 13:00:00 15.1 7 Este 13 Sur 0 897.5 -0.8 21
2019-04-13 12:00:00 11.6 2 Oeste 8 Sur 0 898.1 -0.2 39
2019-04-13 11:00:00 6.2 3 Sudoeste 5 Sudeste 0 898.4 0.3 67
2019-04-13 10:00:00 1.5 3 Sur 7 Sudeste 0 898.3 0.8 78
2019-04-13 09:00:00 -2.2 2 Nordeste 6 Este 0 898.3 1.2 93
2019-04-13 08:00:00 -4.8 2 Nordeste 4 Este 0 898.1 1 91
2019-04-13 07:00:00 -4.2 2 Este 6 Este 0 897.5 0.5 91
2019-04-13 06:00:00 -3.8 0 Calma 7 Sudeste 0 897.1 -0.2 90
2019-04-13 05:00:00 -3.1 0 Calma 6 Este 0 897.1 -0.4 90
2019-04-13 04:00:00 -2.4 2 Sudeste 6 Sudeste 0 897 -0.6 88
2019-04-13 03:00:00 -1.4 3 Este 8 Sudeste 0 897.3 -0.1 87
2019-04-13 02:00:00 -0.2 0 Calma 5 Este 0 897.5 0.5 84
2019-04-13 01:00:00 1.2 0 Calma 6 Sudeste 0 897.6 1.2 79
2019-04-13 00:00:00 2.9 2 Este 6 Sudeste 0 897.4 1.5 73
2019-04-12 23:00:00 5.3 3 Este 10 Norte 0 897 1.4 63
2019-04-12 22:00:00 7.2 3 Noroeste 9 Norte 0 896.4 1 51
2019-04-12 21:00:00 9.5 6 Norte 15 Norte 0 895.9 0.5 48
2019-04-12 20:00:00 12.3 9 Norte 21 Nordeste 0 895.6 0.2 36
2019-04-12 19:00:00 14.4 10 Norte 21 Noroeste 0 895.4 -0.7 32
2019-04-12 18:00:00 15.2 12 Norte 24 Noroeste 0 895.4 -0.9 32
2019-04-12 17:00:00 14.8 8 Noroeste 28 Sudoeste 0 895.4 -1.1 34
2019-04-12 16:00:00 14.3 10 Norte 22 Norte 0 896.1 -0.9 39
2019-04-12 15:00:00 13.2 8 Norte 19 Nordeste 0 896.3 -0.9 39
2019-04-12 14:00:00 11.7 4 Norte 24 Norte 0 896.5 -0.5 57
2019-04-12 13:00:00 9.7 7 Norte 20 Noroeste 0 897 0 53
2019-04-12 12:00:00 7.6 8 Norte 18 Norte 0 897.2 0.2 64
2019-04-12 11:00:00 5.8 6 Noroeste 14 Noroeste 0 897 0.1 72
2019-04-12 10:00:00 3.5 2 Sudoeste 5 Sur 0 897 0.3 86
2019-04-12 09:00:00 -0.2 2 Este 6 Este 0 897 0.2 97
2019-04-12 08:00:00 -2.3 2 Sudeste 7 Sudeste 0 896.9 0.1 94
2019-04-12 07:00:00 -2.1 2 Este 7 Este 0 896.7 -0.2 93
2019-04-12 06:00:00 -1.5 3 Sudeste 9 Sudeste 0 896.8 -0.5 93
2019-04-12 05:00:00 -1.3 2 Este 6 Este 0 896.8 -0.8 92
2019-04-12 04:00:00 -0.6 3 Nordeste 8 Sudeste 0 896.9 -1 89
2019-04-12 03:00:00 1.4 3 Este 9 Noroeste 0 897.3 -0.6 84
2019-04-12 02:00:00 3 6 Noroeste 12 Noroeste 0 897.6 -0.2 81
2019-04-12 01:00:00 3.4 4 Oeste 12 Noroeste 0 897.9 0.5 81
2019-04-12 00:00:00 4.3 5 Oeste 13 Noroeste 0 897.9 1.3 77
2019-04-11 23:00:00 5 6 Noroeste 23 Noroeste 0 897.8 1.9 73
2019-04-11 22:00:00 6.5 12 Norte 25 Norte 0 897.4 1.7 69
2019-04-11 21:00:00 7.9 10 Norte 23 Noroeste 0 896.6 0.9 63
2019-04-11 20:00:00 9.4 14 Norte 30 Noroeste 0 895.9 0.3 56
2019-04-11 19:00:00 10.5 11 Noroeste 27 Noroeste 0 895.7 -0.1 49
2019-04-11 18:00:00 11 13 Noroeste 30 Norte 0 895.7 -0.2 48
2019-04-11 17:00:00 11.3 13 Noroeste 28 Oeste 0 895.6 -0.4 48
2019-04-11 16:00:00 10.9 11 Noroeste 29 Noroeste 0 895.8 -0.7 50
2019-04-11 15:00:00 11.4 13 Norte 30 Nordeste 0 895.9 -0.9 47
2019-04-11 14:00:00 10.3 10 Norte 28 Noroeste 0 896 -0.7 52
2019-04-11 13:00:00 10.1 11 Norte 32 Norte 0 896.5 -0.1 57
2019-04-11 12:00:00 8.4 13 Norte 30 Oeste 0 896.8 0.4 57
2019-04-11 11:00:00 6.1 15 Noroeste 33 Norte 0 896.7 0.6 67
2019-04-11 10:00:00 4.5 10 Noroeste 20 Noroeste 0 896.6 0.9 80
2019-04-11 09:00:00 1.3 2 Oeste 5 Oeste 0 896.4 0.7 97
2019-04-11 08:00:00 -0.4 2 Este 9 Sudeste 0 896.1 0.6 96
2019-04-11 07:00:00 -1 0 Calma 5 Este 0 895.7 0.4 94
2019-04-11 06:00:00 -0.3 3 Este 13 Norte 0 895.7 0.3 92
2019-04-11 05:00:00 0.5 4 Nordeste 12 Norte 0 895.5 -0.1 92
2019-04-11 04:00:00 1.8 4 Noroeste 9 Noroeste 0 895.3 -0.1 88
2019-04-11 03:00:00 2.7 3 Noroeste 19 Noroeste 0 895.4 0.2 86
2019-04-11 02:00:00 3.2 8 Noroeste 18 Noroeste 0 895.6 0.7 84
2019-04-11 01:00:00 3.3 5 Noroeste 13 Noroeste 0 895.4 1 84
2019-04-11 00:00:00 4.2 5 Oeste 18 Nordeste 0 895.2 2 82
2019-04-10 23:00:00 5.1 6 Noroeste 18 Norte 0 894.9 2.2 80
2019-04-10 22:00:00 5.3 2 Sudoeste 10 Este 0 894.4 2 83
2019-04-10 21:00:00 5.6 3 Norte 10 Oeste 0 893.2 1.1 83
2019-04-10 20:00:00 6 6 Oeste 15 Oeste 0 892.7 1 80
2019-04-10 19:00:00 6.8 5 Oeste 21 Noroeste 0 892.4 0.9 76
2019-04-10 18:00:00 7.6 8 Noroeste 34 Norte 0 892.1 0.7 73
2019-04-10 17:00:00 9 15 Noroeste 38 Noroeste 0 891.7 0.1 61
2019-04-10 16:00:00 10 14 Noroeste 27 Noroeste 0 891.5 -0.5 60
2019-04-10 15:00:00 10.7 12 Oeste 28 Oeste 0 891.4 -0.9 53
2019-04-10 14:00:00 8.9 11 Oeste 30 Norte 0 891.6 -0.6 60
2019-04-10 13:00:00 8.4 14 Oeste 33 Oeste 0 892 0.1 64
2019-04-10 12:00:00 6.4 11 Noroeste 33 Oeste 0 892.3 0.5 79
2019-04-10 11:00:00 6.1 14 Oeste 31 Noroeste 0 892.2 0.8 79
2019-04-10 10:00:00 4.6 9 Oeste 21 Sudoeste 0 891.9 0.8 86
2019-04-10 09:00:00 3.4 3 Oeste 12 Oeste 0.2 891.8 0.7 95
2019-04-10 08:00:00 3.1 4 Oeste 17 Oeste 0 891.4 0.3 95
2019-04-10 07:00:00 3.1 9 Oeste 20 Oeste 0.2 891.1 -0.3 94
2019-04-10 06:00:00 2.5 7 Oeste 20 Oeste 0 891.1 -0.5 94
2019-04-10 05:00:00 2.6 10 Oeste 18 Sudoeste 0 891.1 -0.7 93
2019-04-10 04:00:00 3.2 9 Oeste 17 Oeste 0.4 891.4 -0.3 93
2019-04-10 03:00:00 3 4 Oeste 8 Oeste 0 891.6 -0.1 94
2019-04-10 02:00:00 2.8 3 Sudoeste 13 Oeste 0 891.8 0.3 92
2019-04-10 01:00:00 2.7 4 Noroeste 12 Oeste 0 891.7 0.3 92
2019-04-10 00:00:00 3 6 Oeste 13 Oeste 0 891.7 0.7 92
2019-04-09 23:00:00 3.7 4 Oeste 11 Oeste 0 891.5 0.7 91
2019-04-09 22:00:00 3.9 3 Oeste 6 Oeste 0 891.4 1 91
2019-04-09 21:00:00 3.9 5 Noroeste 17 Sudoeste 0 891 0.8 90
2019-04-09 20:00:00 4.3 12 Oeste 27 Oeste 0 890.8 0.8 88
2019-04-09 19:00:00 5.3 10 Oeste 23 Oeste 0.8 890.4 0.2 88
2019-04-09 18:00:00 5.1 10 Oeste 27 Sudoeste 1.4 890.2 -0.4 89
2019-04-09 17:00:00 6.7 18 Sudoeste 40 Sudoeste 0 890 -0.6 78
2019-04-09 16:00:00 7.2 11 Oeste 34 Oeste 0.4 890.2 -1.1 86
2019-04-09 15:00:00 7.8 13 Sudoeste 28 Sudoeste 0.8 890.6 -0.9 77
2019-04-09 14:00:00 9.2 11 Sudoeste 28 Oeste 0 890.6 -0.9 67
2019-04-09 13:00:00 8.3 15 Oeste 37 Sudoeste 0 891.3 -0.5 69
2019-04-09 12:00:00 7.1 14 Sudoeste 34 Oeste 0 891.5 -0.4 75
2019-04-09 11:00:00 6.5 17 Sudoeste 32 Oeste 0 891.5 -0.4 78
2019-04-09 10:00:00 4.9 11 Oeste 23 Oeste 0 891.8 0.1 90
2019-04-09 09:00:00 3.4 8 Oeste 19 Oeste 0 891.9 0.2 98
2019-04-09 08:00:00 1.9 2 Sudeste 4 Sur 0 891.9 0.1 98
2019-04-09 07:00:00 1.2 2 Sudeste 6 Noroeste 0 891.7 -0.3 97
2019-04-09 06:00:00 1.3 0 Calma 4 Sudoeste 0 891.7 -0.8 95
2019-04-09 05:00:00 1.9 0 Calma 5 Sur 0 891.8 -0.9 94
2019-04-09 04:00:00 2.9 0 Calma 8 Oeste 0 892 -0.3 92
2019-04-09 03:00:00 3.2 4 Noroeste 19 Oeste 2.2 892.5 0.3 92
2019-04-09 02:00:00 4 4 Noroeste 18 Noroeste 1 892.7 0.4 90
2019-04-09 01:00:00 4.8 7 Oeste 12 Oeste 0 892.3 0.6 85
2019-04-09 00:00:00 4.9 4 Sur 12 Oeste 0 892.2 1.4 84
2019-04-08 23:00:00 5.8 8 Oeste 24 Noroeste 0 892.3 1.6 78
2019-04-08 22:00:00 6.9 9 Noroeste 19 Norte 0 891.7 1 78
2019-04-08 21:00:00 8.7 3 Sur 15 Oeste 0 890.8 0.1 72
2019-04-08 20:00:00 10.4 9 Oeste 26 Oeste 0 890.7 -0.4 64
2019-04-08 19:00:00 12 14 Sudoeste 25 Sudoeste 0 890.7 -0.6 53
2019-04-08 18:00:00 12.2 13 Oeste 29 Oeste 0 890.7 -1 68
2019-04-08 17:00:00 11 9 Sudoeste 36 Sudoeste 0 891.1 -0.8 69
2019-04-08 16:00:00 11.1 15 Oeste 31 Oeste 0 891.3 -0.8 71
2019-04-08 15:00:00 10.5 12 Oeste 30 Oeste 0.4 891.7 -0.4 83
2019-04-08 14:00:00 9.4 12 Oeste 23 Oeste 0.6 891.9 0.1 90
2019-04-08 13:00:00 9.3 13 Sudoeste 35 Sudoeste 0 892.1 0.1 85
2019-04-08 12:00:00 8.8 12 Sudoeste 27 Sudoeste 0 892.1 0.3 88
2019-04-08 11:00:00 8 8 Oeste 19 Oeste 0.2 891.8 0.6 92
2019-04-08 10:00:00 7.1 10 Oeste 29 Oeste 0.2 892 0.8 92
2019-04-08 09:00:00 6.6 12 Oeste 26 Sudoeste 0 891.8 0.8 92
2019-04-08 08:00:00 6.4 12 Oeste 27 Oeste 0 891.2 0.1 90
2019-04-08 07:00:00 6 10 Oeste 18 Oeste 0 891.2 -0.1 92
2019-04-08 06:00:00 5.4 10 Oeste 16 Oeste 0 891 -0.9 92
2019-04-08 05:00:00 4.7 6 Noroeste 13 Noroeste 0 891.1 -1.4 93
2019-04-08 04:00:00 4.5 4 Oeste 8 Oeste 0 891.3 -1.5 92
2019-04-08 03:00:00 4.4 4 Oeste 8 Oeste 0.2 891.9 -0.9 91
2019-04-08 02:00:00 4.6 5 Oeste 12 Sudoeste 0.2 892.5 -0.4 90
2019-04-08 01:00:00 4.8 4 Sudoeste 10 Sudoeste 0.2 892.8 0 90
2019-04-08 00:00:00 4.9 6 Oeste 20 Oeste 0 892.8 0.9 88
2019-04-07 23:00:00 5.1 11 Oeste 20 Oeste 0 892.9 1.5 84
2019-04-07 22:00:00 5.9 10 Oeste 30 Oeste 0 892.8 1.7 78
2019-04-07 21:00:00 7.3 7 Sudoeste 22 Sudoeste 0 891.9 1.2 54
2019-04-07 20:00:00 8.5 11 Sudoeste 24 Oeste 0 891.4 1 53
2019-04-07 19:00:00 9.9 15 Oeste 28 Oeste 0 891.1 0.9 45
2019-04-07 18:00:00 9.7 15 Oeste 31 Oeste 0 890.7 0.3 46
2019-04-07 17:00:00 10.3 17 Oeste 29 Sudoeste 0 890.4 0.3 42
2019-04-07 16:00:00 9.5 14 Oeste 30 Oeste 0 890.2 0.3 51
2019-04-07 15:00:00 8.4 14 Oeste 29 Oeste 0 890.4 1.1 55
2019-04-07 14:00:00 7.7 12 Oeste 30 Oeste 0 890.1 1.3 60
2019-04-07 13:00:00 6.6 12 Oeste 37 Sudoeste 0 889.9 2.1 62
2019-04-07 12:00:00 6.1 19 Oeste 36 Oeste 0 889.3 1.9 67
2019-04-07 11:00:00 4.1 15 Oeste 33 Oeste 0 888.8 2.5 80
2019-04-07 10:00:00 3.6 18 Oeste 32 Oeste 0 887.8 2.3 82
2019-04-07 09:00:00 2 9 Oeste 26 Oeste 0 887.4 2.4 91
2019-04-07 08:00:00 1.3 8 Oeste 25 Oeste 0.2 886.3 1.5 94
2019-04-07 07:00:00 1.8 11 Oeste 24 Oeste 0 885.5 1.2 91
2019-04-07 06:00:00 1.7 12 Oeste 25 Oeste 0 885 0.7 90
2019-04-07 05:00:00 1.8 8 Oeste 25 Oeste 0 884.8 0.7 90
2019-04-07 04:00:00 2 16 Oeste 29 Oeste 0 884.3 0.2 89
2019-04-07 03:00:00 2.1 11 Oeste 24 Sudoeste 0 884.3 0.4 90
2019-04-07 02:00:00 2.4 11 Oeste 24 Sudoeste 0 884.1 0.2 92
2019-04-07 01:00:00 2 10 Oeste 21 Sudoeste 0 884.1 0.7 94
2019-04-07 00:00:00 1.6 8 Oeste 25 Sudoeste 0.8 883.9 1.1 94
2019-04-06 23:00:00 2.4 8 Oeste 16 Oeste 0 883.9 1.2 92
2019-04-06 22:00:00 1.7 4 Noroeste 17 Oeste 0 883.4 1.6 92
2019-04-06 21:00:00 2.3 10 Sudoeste 17 Oeste 0 882.8 0.7 91
2019-04-06 20:00:00 1.9 11 Oeste 19 Oeste 1.4 882.7 1.5 94
2019-04-06 19:00:00 2.6 5 Sudoeste 19 Sudoeste 0.2 881.8 0.4 92
2019-04-06 18:00:00 2 14 Sudoeste 28 Noroeste 1.6 882.1 0.7 91
2019-04-06 17:00:00 6 14 Sudoeste 33 Sur 0 881.2 -0.5 69
2019-04-06 16:00:00 7.3 18 Sudoeste 37 Sudoeste 0 881.4 -0.8 64
2019-04-06 15:00:00 6 16 Sudoeste 33 Sudoeste 0.2 881.4 -1.2 80
2019-04-06 14:00:00 6.1 14 Sudoeste 35 Oeste 0 881.7 -0.5 77
2019-04-06 13:00:00 4.3 17 Sudoeste 31 Oeste 0 882.2 0.2 78
2019-04-06 12:00:00 3.2 13 Sudoeste 35 Oeste 0 882.6 1 80
2019-04-06 11:00:00 3.7 15 Sudoeste 38 Oeste 0 882.2 1.3 81
2019-04-06 10:00:00 2.2 18 Sudoeste 32 Sudoeste 0 882 1.6 86
2019-04-06 09:00:00 1.6 10 Oeste 25 Oeste 0 881.6 1.2 88
2019-04-06 08:00:00 1.3 10 Oeste 24 Oeste 0 880.9 0.4 92
2019-04-06 07:00:00 1 12 Oeste 22 Sudoeste 1 880.4 -0.1 94
2019-04-06 06:00:00 1.7 9 Oeste 24 Oeste 0 880.4 -0.3 91
2019-04-06 05:00:00 1.7 13 Oeste 26 Oeste 0 880.5 -0.3 89
2019-04-06 04:00:00 1.8 13 Oeste 26 Oeste 0 880.5 -0.1 90
2019-04-06 03:00:00 1.7 10 Oeste 24 Oeste 0 880.7 0.2 90
2019-04-06 02:00:00 1.4 10 Oeste 19 Oeste 0 880.8 0.7 92
2019-04-06 01:00:00 1.3 7 Oeste 28 Oeste 0 880.6 0.9 92
2019-04-06 00:00:00 1.4 14 Oeste 23 Oeste 0 880.5 1.7 94
2019-04-05 23:00:00 1.2 9 Oeste 17 Oeste 0.2 880.1 2.3 95
2019-04-05 22:00:00 0.9 6 Oeste 14 Oeste 1.8 879.7 2.1 95
2019-04-05 21:00:00 1.1 8 Sudoeste 40 Sudoeste 1.4 878.8 1.2 93
2019-04-05 20:00:00 5.2 8 Sudoeste 21 Sudoeste 0 877.8 -0.9 78
2019-04-05 19:00:00 5.6 12 Sudoeste 20 Sudoeste 0 877.6 -1.3 79
2019-04-05 18:00:00 5.1 10 Sur 36 Sudoeste 0 877.6 -2 80
2019-04-05 17:00:00 5.9 18 Sur 31 Sudoeste 0 878.7 -0.8 79
2019-04-05 16:00:00 5.3 8 Sudoeste 16 Oeste 0.2 878.9 -1 83
2019-04-05 15:00:00 5.4 10 Sudoeste 28 Sudoeste 0.2 879.6 -0.5 85
2019-04-05 14:00:00 7 11 Sudoeste 22 Sudoeste 0 879.5 -0.5 72
2019-04-05 13:00:00 6.5 10 Sudoeste 27 Sur 0 879.9 -0.1 70
2019-04-05 12:00:00 6.9 13 Sudoeste 28 Sudoeste 0 880.1 0 69
2019-04-05 11:00:00 5.1 10 Sudoeste 27 Sudoeste 0 880 -0.2 76
2019-04-05 10:00:00 4.5 10 Sudoeste 26 Sudoeste 0 880 -0.1 76
2019-04-05 09:00:00 3.6 5 Sudoeste 10 Sur 0 880.1 0.1 82
2019-04-05 08:00:00 3.2 4 Sudoeste 19 Sur 0 880.2 0.4 83
2019-04-05 07:00:00 3 4 Sudoeste 23 Oeste 0 880.1 0.3 82
2019-04-05 06:00:00 4.3 10 Sudoeste 31 Sudoeste 0 880 -0.2 68
2019-04-05 05:00:00 5.2 12 Oeste 26 Oeste 0 879.8 -0.5 65
2019-04-05 04:00:00 3.5 5 Sudoeste 16 Sudoeste 0 879.8 -0.7 70
2019-04-05 03:00:00 2.3 0 Calma 4 Norte 0 880.2 -1 64
2019-04-05 02:00:00 1.4 2 Nordeste 9 Este 0 880.3 -1.3 67
2019-04-05 01:00:00 1.4 5 Nordeste 8 Nordeste 0 880.5 -1.2 66
2019-04-05 00:00:00 2.7 3 Nordeste 8 Este 0 881.2 -0.4 64
2019-04-04 23:00:00 3 4 Este 8 Este 0 881.6 0.2 58
2019-04-04 22:00:00 4.7 2 Sudeste 7 Sudoeste 0 881.7 0.4 50
2019-04-04 21:00:00 7 4 Sudoeste 20 Sudoeste 0 881.6 0 38
2019-04-04 20:00:00 8.6 9 Sudoeste 22 Sudoeste 0 881.4 -0.3 34
2019-04-04 19:00:00 9.6 10 Sudoeste 25 Sudoeste 0 881.3 -1.1 32
2019-04-04 18:00:00 10.2 14 Sudoeste 31 Sudoeste 0 881.6 -1.3 28
2019-04-04 17:00:00 11.6 13 Sudoeste 44 Sudoeste 0 881.7 -1.6 31
2019-04-04 16:00:00 11.4 10 Oeste 30 Oeste 0 882.4 -1.2 33
2019-04-04 15:00:00 10.6 5 Oeste 23 Oeste 0 882.9 -1.1 33
2019-04-04 14:00:00 8.9 12 Sudoeste 22 Sudoeste 0 883.3 -0.7 36
2019-04-04 13:00:00 8.3 7 Oeste 22 Oeste 0 883.6 -0.5 37
2019-04-04 12:00:00 6.9 9 Noroeste 18 Noroeste 0 884 0 42
2019-04-04 11:00:00 4.3 9 Noroeste 22 Oeste 0 884 0.5 51
2019-04-04 10:00:00 1.4 8 Oeste 17 Oeste 0 884.1 1 67
2019-04-04 09:00:00 -1.4 2 Sudeste 9 Este 0 884 1.2 79
2019-04-04 08:00:00 -2.1 2 Este 17 Oeste 0 883.5 0.7 78
2019-04-04 07:00:00 -1.3 10 Oeste 20 Oeste 0 883.1 0.1 76
2019-04-04 06:00:00 -0.9 10 Oeste 21 Sudoeste 0 882.8 -0.7 74
2019-04-04 05:00:00 -1.2 6 Oeste 12 Oeste 0 882.8 -1.2 79
2019-04-04 04:00:00 -2 2 Sudoeste 5 Sudoeste 0 883 -1.4 91
2019-04-04 03:00:00 -0.9 3 Este 10 Noroeste 0 883.5 -1.1 87
2019-04-04 02:00:00 -0.3 6 Noroeste 12 Oeste 0 884 -0.7 88
2019-04-04 01:00:00 0.3 2 Oeste 10 Norte 0 884.4 -0.2 87
2019-04-04 00:00:00 1.5 5 Norte 13 Norte 0 884.6 0.8 86
2019-04-03 23:00:00 2.8 3 Norte 13 Nordeste 0 884.7 1.7 84
2019-04-03 22:00:00 3.7 4 Nordeste 14 Nordeste 0 884.6 1.4 81
2019-04-03 21:00:00 4.5 6 Nordeste 31 Norte 0 883.8 0.5 77
2019-04-03 20:00:00 8.4 10 Oeste 30 Oeste 0 883 -0.6 42
2019-04-03 19:00:00 8.4 11 Oeste 27 Oeste 0 883.2 -0.9 45
2019-04-03 18:00:00 8.6 15 Noroeste 34 Oeste 0 883.3 -0.9 47
2019-04-03 17:00:00 8 13 Noroeste 31 Oeste 0 883.6 -0.9 55
2019-04-03 16:00:00 7.6 9 Noroeste 26 Noroeste 0 884.1 -1 65
2019-04-03 15:00:00 8.5 12 Noroeste 28 Norte 0 884.2 -1.7 68
2019-04-03 14:00:00 10.6 13 Oeste 34 Oeste 0 884.5 -2 58
2019-04-03 13:00:00 12.4 17 Oeste 30 Oeste 0 885.1 -1.9 57
2019-04-03 12:00:00 10.6 8 Oeste 18 Oeste 0 885.9 -1.6 68
2019-04-03 11:00:00 8.5 6 Oeste 13 Oeste 0 886.5 -1.3 82
2019-04-03 10:00:00 5.7 0 Calma 5 Sur 0 887 -1.3 99
2019-04-03 09:00:00 3.6 0 Calma 4 Este 0 887.5 -1.3 99
2019-04-03 08:00:00 2.7 0 Calma 3 Sudoeste 0 887.8 -1.6 98
2019-04-03 07:00:00 2.4 0 Calma 5 Sudeste 0 888.3 -1.8 98
2019-04-03 06:00:00 2.5 0 Calma 4 Sudeste 0 888.8 -1.9 97
2019-04-03 05:00:00 2.4 0 Calma 3 Este 0 889.4 -2.2 97
2019-04-03 04:00:00 2.7 0 Calma 3 Este 0 890.1 -2 96
2019-04-03 03:00:00 3.1 0 Calma 5 Este 0 890.7 -1.7 95
2019-04-03 02:00:00 4.1 0 Calma 5 Este 0 891.6 -1.1 94
2019-04-03 01:00:00 5.1 4 Este 8 Este 0 892.1 -0.7 94
2019-04-03 00:00:00 5.4 0 Calma 4 Sur 0 892.4 -0.1 92
2019-04-02 23:00:00 6.5 0 Calma 10 Sur 0 892.7 0.2 88
2019-04-02 22:00:00 7.9 6 Sudoeste 19 Oeste 0.8 892.8 0.3 86
2019-04-02 21:00:00 8.9 4 Sudoeste 20 Sur 0 892.5 -0.3 73
2019-04-02 20:00:00 10.6 11 Sur 18 Sudoeste 0 892.5 0.2 65
2019-04-02 19:00:00 11.7 10 Sudoeste 27 Oeste 0 892.5 -0.4 61
2019-04-02 18:00:00 12 10 Oeste 39 Oeste 0 892.8 -0.6 60
2019-04-02 17:00:00 14.6 5 Sur 18 Sur 0 892.3 -2 53
2019-04-02 16:00:00 13.1 9 Sudeste 18 Sudeste 0 892.9 -1.5 62
2019-04-02 15:00:00 13.4 7 Sudeste 16 Norte 0.2 893.4 -1.7 58
2019-04-02 14:00:00 12.4 10 Norte 24 Norte 0.6 894.3 -0.6 68
2019-04-02 13:00:00 13.8 4 Noroeste 12 Sudoeste 0 894.4 -0.5 58
2019-04-02 12:00:00 11.9 6 Sudoeste 16 Oeste 0 895.1 0.2 70
2019-04-02 11:00:00 10 3 Oeste 7 Oeste 0 894.9 0.5 83
2019-04-02 10:00:00 7.1 0 Calma 5 Este 0 894.9 0.6 93
2019-04-02 09:00:00 4.6 2 Sudeste 5 Sudeste 0 894.9 0.2 96
2019-04-02 08:00:00 5.1 0 Calma 8 Este 0 894.4 -0.4 92
2019-04-02 07:00:00 6.3 6 Este 16 Este 0.4 894.3 -0.4 92
2019-04-02 06:00:00 6.6 4 Sudoeste 14 Noroeste 1 894.7 0 93
2019-04-02 05:00:00 6.6 5 Noroeste 12 Oeste 0 894.8 -0.2 93
2019-04-02 04:00:00 5.7 0 Calma 5 Norte 0 894.7 -0.4 96
2019-04-02 03:00:00 6.2 3 Norte 8 Nordeste 0 894.7 -0.1 95
2019-04-02 02:00:00 7 0 Calma 5 Sur 0 895 0.1 96
2019-04-02 01:00:00 7.5 0 Calma 4 Oeste 0 895.1 0.7 94
2019-04-02 00:00:00 8.3 0 Calma 5 Sudeste 0 894.8 1.1 92
2019-04-01 23:00:00 8.6 2 Nordeste 5 Este 0 894.9 1.5 92
2019-04-01 22:00:00 8.8 2 Norte 4 Norte 0 894.4 1.4 89
2019-04-01 21:00:00 9.6 2 Sur 5 Sur 0 893.7 0.6 84
2019-04-01 20:00:00 10.3 3 Norte 4 Noroeste 0 893.4 0.2 87
2019-04-01 19:00:00 10.3 0 Calma 6 Norte 0.2 893 -0.2 84
2019-04-01 18:00:00 10.3 3 Norte 6 Norte 2.2 893.1 0.1 87
2019-04-01 17:00:00 10.1 2 Nordeste 13 Este 0.4 893.2 -0.6 82
2019-04-01 16:00:00 10.1 8 Sudoeste 23 Oeste 1.6 893.2 -0.7 80
2019-04-01 15:00:00 12.1 8 Noroeste 14 Noroeste 0.2 893 -1 82
2019-04-01 14:00:00 10.1 8 Oeste 16 Oeste 1 893.8 0.1 87
2019-04-01 13:00:00 10.5 3 Sudoeste 8 Sudeste 0 893.9 0.6 77
2019-04-01 12:00:00 9.3 3 Nordeste 8 Este 0 894 0.9 87
2019-04-01 11:00:00 8.1 3 Este 8 Este 0.8 893.7 1 93
2019-04-01 10:00:00 7.3 2 Este 4 Sudoeste 0.2 893.3 0.9 94
2019-04-01 09:00:00 6.3 0 Calma 4 Sur 0 893.1 0.8 96
2019-04-01 08:00:00 6 0 Calma 3 Sur 0.2 892.7 0.2 95
2019-04-01 07:00:00 5.9 2 Este 3 Este 0.2 892.4 -0.4 95
2019-04-01 06:00:00 5.8 0 Calma 3 Sudeste 0.2 892.3 -0.7 95
2019-04-01 05:00:00 5.8 0 Calma 3 Nordeste 0.2 892.5 -0.7 95
2019-04-01 04:00:00 5.7 2 Sudeste 5 Este 0.2 892.8 -0.6 95
2019-04-01 03:00:00 5.6 4 Este 8 Este 0.2 893 -0.5 95
2019-04-01 02:00:00 5.6 2 Este 7 Este 0.2 893.2 -0.2 94
2019-04-01 01:00:00 5.7 4 Nordeste 10 Este 0.6 893.4 0.1 93
2019-04-01 00:00:00 5.8 4 Nordeste 13 Nordeste 0 893.5 0.6 93
2019-03-31 23:00:00 5.9 8 Nordeste 15 Este 0.2 893.4 0.5 94
2019-03-31 22:00:00 5.9 4 Nordeste 7 Nordeste 0.2 893.3 0.3 94
2019-03-31 21:00:00 5.8 2 Nordeste 6 Este 0.4 892.9 0.1 92
2019-03-31 20:00:00 5.8 4 Este 15 Este 1.2 892.9 -0.1 91
2019-03-31 19:00:00 6.3 8 Este 16 Este 0.4 893 -0.2 90
2019-03-31 18:00:00 6.5 7 Sudeste 14 Sur 1.2 892.8 -0.8 89
2019-03-31 17:00:00 6.7 9 Este 19 Sudeste 2 893 -0.8 89
2019-03-31 16:00:00 6.8 10 Este 24 Este 2 893.2 -0.8 90
2019-03-31 15:00:00 8.1 14 Este 27 Sudeste 0.8 893.6 -0.7 86
2019-03-31 14:00:00 9.1 10 Este 22 Sudeste 0.2 893.8 -0.6 78
2019-03-31 13:00:00 9.4 13 Este 21 Nordeste 0.2 894 -0.3 73
2019-03-31 12:00:00 7.2 4 Norte 10 Norte 0 894.3 -0.1 83
2019-03-31 11:00:00 4.8 3 Sudoeste 5 Sudoeste 0 894.4 0.2 79
2019-03-31 10:00:00 3.2 0 Calma 4 Sur 0 894.3 -0.1 78
2019-03-31 09:00:00 1.6 0 Calma 5 Sudeste 0 894.4 -0.3 83
2019-03-31 08:00:00 0.7 4 Sudeste 7 Sudeste 0 894.2 -1.1 84
2019-03-31 07:00:00 0.9 3 Este 6 Este 0 894.4 -1.6 82
2019-03-31 06:00:00 1.2 0 Calma 5 Este 0 894.7 -1.7 82
2019-03-31 05:00:00 1.4 4 Este 8 Este 0 895.3 -1.5 83
2019-03-31 03:00:00 2.2 3 Nordeste 8 Este 0 896.4 -0.6 79
2019-03-31 01:00:00 3.5 3 Sudeste 7 Este 0 896.8 -0.6 71
2019-03-31 00:00:00 5.3 3 Este 7 Norte 0 897 0.1 65
2019-03-30 23:00:00 6.8 3 Este 7 Noroeste 0 897 0.8 59
2019-03-30 22:00:00 9.5 3 Nordeste 23 Este 0 897.4 1.7 49
2019-03-30 21:00:00 11.1 14 Nordeste 34 Este 0 896.9 1.4 42
2019-03-30 20:00:00 12 13 Nordeste 25 Este 0 896.2 0.4 37
2019-03-30 19:00:00 13.8 6 Nordeste 24 Este 0 895.7 -0.6 31
2019-03-30 18:00:00 15 9 Este 23 Este 0 895.5 -1.3 26
2019-03-30 17:00:00 15.4 8 Este 27 Este 0 895.8 -1.7 24
2019-03-30 16:00:00 17.5 11 Nordeste 25 Este 0 896.3 -2.2 21
2019-03-30 15:00:00 17.4 7 Norte 19 Este 0 896.8 -2.5 24
2019-03-30 14:00:00 16.3 7 Oeste 16 Nordeste 0 897.5 -2.4 29
2019-03-30 13:00:00 14.5 4 Noroeste 16 Sudeste 0 898.5 -1.7 29
2019-03-30 12:00:00 13.8 5 Norte 18 Norte 0 899.3 -1.3 28
2019-03-30 11:00:00 11.4 6 Nordeste 14 Norte 0 899.9 -0.9 37
2019-03-30 10:00:00 5.9 2 Oeste 6 Sudoeste 0 900.2 -0.4 54
2019-03-30 09:00:00 1.5 2 Sur 7 Este 0 900.6 0 63
2019-03-30 08:00:00 -3.4 3 Este 5 Sudeste 0 900.8 0.3 83
2019-03-30 07:00:00 -4.2 2 Este 5 Este 0 900.6 -0.2 81
2019-03-30 06:00:00 -3.5 3 Este 6 Sudeste 0 900.6 -0.5 78
2019-03-30 05:00:00 -2.8 0 Calma 7 Sudeste 0 900.5 -0.9 76
2019-03-30 04:00:00 -1.9 0 Calma 5 Sudeste 0 900.8 -0.8 74
2019-03-30 03:00:00 -0.9 2 Este 4 Este 0 901.1 -0.6 70
2019-03-30 02:00:00 0.5 2 Este 6 Sudeste 0 901.4 -0.3 66
2019-03-30 01:00:00 2.1 3 Sudeste 7 Este 0 901.6 0.2 62
2019-03-30 00:00:00 3.8 5 Este 9 Este 0 901.7 0.8 55
2019-03-29 23:00:00 5.3 4 Este 8 Este 0 901.7 1.6 50
2019-03-29 22:00:00 7 4 Este 9 Este 0 901.4 2 43
2019-03-29 21:00:00 9.7 8 Sur 21 Sur 0 900.9 1.9 36
2019-03-29 20:00:00 12 10 Sur 22 Oeste 0 900.1 0.9 32
2019-03-29 19:00:00 14.8 13 Oeste 24 Oeste 0 899.4 -0.3 25
2019-03-29 18:00:00 15.5 14 Este 27 Este 0 899 -1.4 21
2019-03-29 17:00:00 15.6 10 Este 23 Este 0 899.2 -1.9 21
2019-03-29 16:00:00 16.9 8 Este 17 Sudeste 0 899.7 -2.1 19
2019-03-29 15:00:00 16.9 6 Sur 21 Norte 0 900.4 -2 20
2019-03-29 14:00:00 16.6 -- -- -- -- -- 901.1 -2.1 20
2019-03-29 13:00:00 15.9 8 Sudeste 20 Sudeste 0 901.8 -2 22
2019-03-29 12:00:00 14.7 6 Sudeste 16 Sudeste 0 902.4 -1.6 26
2019-03-29 11:00:00 11.6 2 Sudeste 7 Sur 0 903.2 -1 34
2019-03-29 10:00:00 6.4 0 Calma 5 Sudoeste 0 903.8 -0.2 51
2019-03-29 09:00:00 1.4 2 Sur 5 Sudoeste 0 904 0.2 68
2019-03-29 08:00:00 -3.3 2 Este 6 Sudeste 0 904.2 0.6 83
2019-03-29 07:00:00 -4 2 Nordeste 6 Sudeste 0 904 0.3 81
2019-03-29 06:00:00 -3.5 2 Sudeste 4 Sudeste 0 903.8 -0.1 79
2019-03-29 05:00:00 -2.9 3 Sudeste 4 Este 0 903.6 -0.3 78
2019-03-29 04:00:00 -2.2 3 Este 7 Este 0 903.7 -0.1 76
2019-03-29 03:00:00 -1.4 3 Este 6 Sudeste 0 903.9 0.1 74
2019-03-29 02:00:00 -0.2 3 Este 5 Sudeste 0 903.9 0.2 71
2019-03-29 01:00:00 1.1 4 Nordeste 7 Sudeste 0 903.8 0.1 67
2019-03-29 00:00:00 2.3 4 Este 7 Nordeste 0 903.8 0.4 64
2019-03-28 23:00:00 4.1 0 Calma 9 Sudeste 0 903.7 1.1 57
2019-03-28 22:00:00 6.1 3 Este 7 Sudeste 0 903.7 1.5 52
2019-03-28 21:00:00 8.6 0 Calma 14 Nordeste 0 903.4 1.4 45
2019-03-28 20:00:00 10.4 5 Nordeste 12 Este 0 902.6 0.6 35
2019-03-28 19:00:00 14.1 6 Nordeste 18 Este 0 902.2 -0.3 26
2019-03-28 18:00:00 16.4 7 Nordeste 24 Este 0 902 -0.8 24
2019-03-28 17:00:00 17.8 8 Nordeste 25 Este 0 902 -1.3 18
2019-03-28 16:00:00 17.5 9 Este 22 Norte 0 902.5 -1.5 19
2019-03-28 15:00:00 17.6 9 Norte 19 Noroeste 0 902.8 -1.8 23
2019-03-28 14:00:00 16.2 9 Sur 20 Este 0 903.3 -1.7 22
2019-03-28 13:00:00 15.5 5 Noroeste 13 Nordeste 0 904 -1.3 22
2019-03-28 12:00:00 13 4 Sur 10 Sur 0 904.6 -1 27
2019-03-28 11:00:00 10.3 4 Sudoeste 8 Sur 0 905 -0.6 33
2019-03-28 10:00:00 4.8 2 Oeste 5 Oeste 0 905.3 -0.1 43
2019-03-28 09:00:00 -0.1 2 Sur 4 Sudeste 0 905.6 0.6 56
2019-03-28 08:00:00 -4.6 0 Calma 5 Este 0 905.6 0.7 71
2019-03-28 07:00:00 -5.2 0 Calma 5 Este 0 905.4 0.6 71
2019-03-28 06:00:00 -4.5 3 Este 7 Sudeste 0 905 0.4 68
2019-03-28 05:00:00 -3.9 0 Calma 9 Oeste 0 904.9 0.6 67
2019-03-28 04:00:00 -3.8 2 Este 5 Este 0 904.8 0.4 65
2019-03-28 03:00:00 -2.8 2 Este 5 Este 0 904.6 0.6 60
2019-03-28 02:00:00 -1.8 0 Calma 9 Este 0 904.3 0.8 56
2019-03-28 01:00:00 -1 2 Sudeste 8 Sudeste 0 904.4 1.2 55
2019-03-28 00:00:00 -0.1 2 Este 4 Sur 0 904 1.3 52
2019-03-27 23:00:00 1.4 2 Nordeste 7 Este 0 903.5 1.6 48
2019-03-27 22:00:00 3.7 2 Este 6 Sudeste 0 903.2 1.8 41
2019-03-27 21:00:00 5.8 2 Nordeste 5 Este 0 902.7 1.6 35
2019-03-27 20:00:00 8.9 5 Nordeste 10 Este 0 901.9 0.9 30
2019-03-27 19:00:00 12.9 4 Nordeste 18 Este 0 901.4 0.3 23
2019-03-27 18:00:00 14.9 9 Nordeste 22 Este 0 901.1 -0.2 21
2019-03-27 17:00:00 16.4 9 Nordeste 21 Este 0 901 -0.6 19
2019-03-27 16:00:00 17 9 Nordeste 21 Norte 0 901.1 -1.1 18
2019-03-27 15:00:00 16.4 8 Nordeste 22 Norte 0 901.3 -1 21
2019-03-27 14:00:00 15.7 7 Nordeste 22 Norte 0 901.6 -0.9 24
2019-03-27 13:00:00 14.6 9 Nordeste 20 Este 0 902.2 -0.3 28
2019-03-27 12:00:00 13.1 10 Norte 19 Norte 0 902.3 -0.3 31
2019-03-27 11:00:00 10.5 6 Norte 15 Norte 0 902.5 0.1 39
2019-03-27 10:00:00 5.1 2 Oeste 5 Sudoeste 0 902.5 0.6 56
2019-03-27 09:00:00 -1 3 Sudoeste 6 Sudoeste 0 902.6 0.9 65
2019-03-27 08:00:00 -5.5 2 Este 4 Este 0 902.4 0.9 73
2019-03-27 07:00:00 -6.5 0 Calma 4 Sudeste 0 901.9 0.4 70
2019-03-27 06:00:00 -6 2 Este 6 Sudeste 0 901.7 0.3 68
2019-03-27 05:00:00 -5.5 2 Este 7 Sudeste 0 901.5 0 65
2019-03-27 04:00:00 -4.7 2 Este 5 Este 0 901.5 0.1 61
2019-03-27 03:00:00 -3.9 3 Sudeste 6 Sudeste 0 901.4 0.2 57
2019-03-27 02:00:00 -2.9 2 Este 5 Sudeste 0 901.5 0.5 54
2019-03-27 01:00:00 -2 2 Sudeste 7 Sudeste 0 901.4 1.1 51
2019-03-27 00:00:00 -0.7 5 Este 10 Sudeste 0 901.2 1.5 46
2019-03-26 23:00:00 0.9 2 Este 10 Norte 0 901 1.8 41
2019-03-26 22:00:00 3.2 3 Sudeste 7 Este 0 900.3 1.4 34
2019-03-26 21:00:00 6.7 3 Sur 16 Nordeste 0 899.7 1.2 26
2019-03-26 20:00:00 8.6 5 Nordeste 13 Nordeste 0 899.2 0.8 23
2019-03-26 19:00:00 12.4 5 Nordeste 24 Este 0 898.9 0.4 18
2019-03-26 18:00:00 15.2 9 Nordeste 28 Nordeste 0 898.5 -0.3 16
2019-03-26 17:00:00 16.1 10 Nordeste 34 Este 0 898.4 -0.8 17
2019-03-26 16:00:00 16 15 Este 32 Este 0 898.5 -1 19
2019-03-26 15:00:00 16.6 11 Nordeste 31 Nordeste 0 898.8 -1.1 24
2019-03-26 14:00:00 15.8 9 Nordeste 24 Este 0 899.2 -1 29
2019-03-26 13:00:00 13.8 12 Este 29 Nordeste 0 899.5 -1 35
2019-03-26 12:00:00 12.5 8 Nordeste 21 Sudeste 0 899.9 -0.7 43
2019-03-26 11:00:00 9.5 11 Este 24 Este 0 900.2 -0.1 48
2019-03-26 10:00:00 7.3 10 Sudeste 18 Este 0 900.5 0.6 55
2019-03-26 09:00:00 0.5 3 Sudeste 5 Sudeste 0 900.6 1.1 83
2019-03-26 08:00:00 -4.8 2 Este 4 Este 0 900.3 0.9 89
2019-03-26 07:00:00 -5.3 0 Calma 5 Sudeste 0 899.9 0.6 85
2019-03-26 06:00:00 -4.9 3 Sudeste 5 Sudeste 0 899.5 -0.1 84
2019-03-26 05:00:00 -4.2 0 Calma 5 Sudeste 0 899.4 -0.5 84
2019-03-26 04:00:00 -3.4 0 Calma 4 Norte 0 899.3 -0.6 82
2019-03-26 03:00:00 -2.5 0 Calma 6 Sudeste 0 899.6 -0.3 79
2019-03-26 02:00:00 -1.5 4 Este 8 Sudeste 0 899.9 0.4 78
2019-03-26 01:00:00 -0.6 0 Calma 6 Este 0 899.9 0.7 73
2019-03-26 00:00:00 0.7 3 Este 6 Este 0 899.9 1.2 67
2019-03-25 23:00:00 2.4 0 Calma 5 Nordeste 0 899.5 1 62
2019-03-25 22:00:00 4.3 0 Calma 5 Sur 0 899.2 1.1 56
2019-03-25 21:00:00 6.2 2 Este 12 Norte 0 898.7 0.8 48
2019-03-25 20:00:00 9.4 5 Norte 15 Norte 0 898.5 0.7 38
2019-03-25 19:00:00 12.7 9 Noroeste 24 Norte 0 898.1 0 24
2019-03-25 18:00:00 16 12 Norte 23 Nordeste 0 897.9 -0.7 25
2019-03-25 17:00:00 18 9 Norte 21 Norte 0 897.8 -1.6 25
2019-03-25 16:00:00 18.2 9 Norte 21 Norte 0 898.1 -2.2 27
2019-03-25 15:00:00 17.8 5 Nordeste 24 Este 0 898.6 -2.3 24
2019-03-25 14:00:00 17.3 7 Nordeste 18 Norte 0 899.4 -2 30
2019-03-25 13:00:00 15.7 6 Este 16 Norte 0 900.3 -1.4 30
2019-03-25 12:00:00 15 6 Norte 15 Norte 0 900.9 -0.9 36
2019-03-25 11:00:00 11.8 3 Noroeste 10 Noroeste 0 901.4 -0.5 45
2019-03-25 10:00:00 7.4 2 Sudoeste 6 Este 0 901.7 0.2 56
2019-03-25 09:00:00 2.6 3 Este 7 Nordeste 0 901.8 0.3 66
2019-03-25 08:00:00 -3 2 Nordeste 5 Este 0 901.9 0.2 81
2019-03-25 07:00:00 -3.1 2 Este 6 Este 0 901.5 -0.3 80
2019-03-25 06:00:00 -2.6 2 Este 5 Sudeste 0 901.5 -0.6 79
2019-03-25 05:00:00 -1.9 2 Este 4 Sudeste 0 901.7 -0.5 77
2019-03-25 04:00:00 -1.4 3 Este 5 Este 0 901.8 -0.6 74
2019-03-25 03:00:00 -0.4 0 Calma 5 Sudeste 0 902.1 -0.4 71
2019-03-25 02:00:00 0.6 0 Calma 6 Sudeste 0 902.2 -0.3 68
2019-03-25 01:00:00 1.8 2 Nordeste 6 Sudeste 0 902.4 0.2 63
2019-03-25 00:00:00 3.4 2 Nordeste 6 Nordeste 0 902.5 0.8 58